createdAt,value
2018-04-17T00:02:16.675Z,89.00
2018-04-17T00:04:44.825Z,89.10
2018-04-17T00:07:12.934Z,89.10
2018-04-17T00:09:41.765Z,89.00
2018-04-17T00:12:10.624Z,89.40
2018-04-17T00:14:38.668Z,88.50
2018-04-17T00:17:06.739Z,88.30
2018-04-17T00:19:34.829Z,88.70
2018-04-17T00:22:02.884Z,88.70
2018-04-17T00:24:31.003Z,88.60
2018-04-17T00:26:59.050Z,88.00
2018-04-17T00:29:27.106Z,87.90
2018-04-17T00:31:55.179Z,87.80
2018-04-17T00:34:24.380Z,88.00
2018-04-17T00:36:52.453Z,87.90
2018-04-17T00:39:20.538Z,87.30
2018-04-17T00:41:50.135Z,88.00
2018-04-17T00:44:18.182Z,87.00
2018-04-17T00:46:46.247Z,86.80
2018-04-17T00:49:14.320Z,86.80
2018-04-17T00:51:42.406Z,87.30
2018-04-17T00:54:10.465Z,87.60
2018-04-17T00:56:38.529Z,87.30
2018-04-17T00:59:06.614Z,86.80
2018-04-17T01:01:34.670Z,86.80
2018-04-17T01:04:02.732Z,86.60
2018-04-17T01:06:31.555Z,87.20
2018-04-17T01:08:59.607Z,86.60
2018-04-17T01:11:27.663Z,86.60
2018-04-17T01:13:56.537Z,87.20
2018-04-17T01:16:25.352Z,87.10
2018-04-17T01:18:53.387Z,86.20
2018-04-17T01:21:22.990Z,86.60
2018-04-17T01:23:51.393Z,86.60
2018-04-17T01:26:19.398Z,86.70
2018-04-17T01:28:47.474Z,87.10
2018-04-17T01:31:15.544Z,87.10
2018-04-17T01:33:43.621Z,87.10
2018-04-17T01:36:12.449Z,86.60
2018-04-17T01:38:40.547Z,86.60
2018-04-17T01:43:37.945Z,86.10
2018-04-17T01:46:05.983Z,86.30
2018-04-17T01:48:34.833Z,86.80
2018-04-17T01:51:02.919Z,86.40
2018-04-17T01:53:30.994Z,86.40
2018-04-17T01:56:00.544Z,86.80
2018-04-17T01:58:28.619Z,86.40
2018-04-17T02:00:56.665Z,86.50
2018-04-17T02:03:25.533Z,87.90
2018-04-17T02:05:55.115Z,87.70
2018-04-17T02:08:23.165Z,87.20
2018-04-17T02:10:51.218Z,86.80
2018-04-17T02:13:19.296Z,87.00
2018-04-17T02:15:47.853Z,86.90
2018-04-17T02:18:16.664Z,87.60
2018-04-17T02:20:44.728Z,87.10
2018-04-17T02:23:13.522Z,87.90
2018-04-17T02:25:41.582Z,87.60
2018-04-17T02:28:10.420Z,87.80
2018-04-17T02:30:38.454Z,87.20
2018-04-17T02:33:07.347Z,87.40
2018-04-17T02:35:35.409Z,87.20
2018-04-17T02:38:04.233Z,87.80
2018-04-17T02:40:32.269Z,87.20
2018-04-17T02:43:01.128Z,88.00
2018-04-17T02:45:29.215Z,87.60
2018-04-17T02:47:58.023Z,88.10
2018-04-17T02:50:26.838Z,88.30
2018-04-17T02:52:54.918Z,88.10
2018-04-17T02:55:22.955Z,88.20
2018-04-17T02:57:51.458Z,88.70
2018-04-17T03:00:19.470Z,88.80
2018-04-17T03:02:47.547Z,89.20
2018-04-17T03:05:15.587Z,89.30
2018-04-17T03:07:43.657Z,89.40
2018-04-17T03:10:12.514Z,89.90
2018-04-17T03:12:40.570Z,89.70
2018-04-17T03:15:09.406Z,90.10
2018-04-17T03:17:37.468Z,89.90
2018-04-17T03:20:05.538Z,90.00
2018-04-17T03:22:33.597Z,90.00
2018-04-17T03:25:01.690Z,90.10
2018-04-17T03:27:29.726Z,90.00
2018-04-17T03:29:59.405Z,90.10
2018-04-17T03:32:27.542Z,90.10
2018-04-17T03:34:55.607Z,90.20
2018-04-17T03:37:23.658Z,90.10
2018-04-17T03:39:51.738Z,90.00
2018-04-17T03:42:19.798Z,90.00
2018-04-17T03:44:48.643Z,90.30
2018-04-17T03:47:16.698Z,90.10
2018-04-17T03:49:44.746Z,90.20
2018-04-17T03:52:12.806Z,90.30
2018-04-17T03:54:40.868Z,90.40
2018-04-17T03:57:09.373Z,90.50
2018-04-17T03:59:37.420Z,90.60
2018-04-17T04:02:05.503Z,90.60
2018-04-17T04:04:33.587Z,90.70
2018-04-17T04:07:01.636Z,90.90
2018-04-17T04:09:29.707Z,90.90
2018-04-17T04:11:58.541Z,91.00
2018-04-17T04:14:26.583Z,91.10
2018-04-17T04:17:06.290Z,91.00
2018-04-17T04:19:46.105Z,91.20
2018-04-17T04:22:25.842Z,91.20
2018-04-17T04:25:05.870Z,91.10
2018-04-17T04:27:33.978Z,91.10
2018-04-17T04:30:02.038Z,91.10
2018-04-17T04:32:30.086Z,91.20
2018-04-17T04:34:58.176Z,91.30
2018-04-17T04:37:26.261Z,91.50
2018-04-17T04:39:54.305Z,91.40
2018-04-17T04:42:22.420Z,91.40
2018-04-17T04:44:50.459Z,91.40
2018-04-17T04:47:18.547Z,91.50
2018-04-17T04:49:46.607Z,91.50
2018-04-17T04:52:14.680Z,91.40
2018-04-17T04:54:42.729Z,91.40
2018-04-17T04:57:10.818Z,91.10
2018-04-17T04:59:38.900Z,91.10
2018-04-17T05:02:06.970Z,91.10
2018-04-17T05:04:35.027Z,91.00
2018-04-17T05:07:03.077Z,91.00
2018-04-17T05:09:31.194Z,90.90
2018-04-17T05:11:59.217Z,90.90
2018-04-17T05:14:27.319Z,90.90
2018-04-17T05:16:55.376Z,90.80
2018-04-17T05:19:23.525Z,90.70
2018-04-17T05:21:52.338Z,90.90
2018-04-17T05:24:20.422Z,90.40
2018-04-17T05:26:48.498Z,90.30
2018-04-17T05:29:16.562Z,90.30
2018-04-17T05:31:44.621Z,90.20
2018-04-17T05:34:12.748Z,90.00
2018-04-17T05:36:40.731Z,89.60
2018-04-17T05:39:09.550Z,89.60
2018-04-17T05:41:37.631Z,88.20
2018-04-17T05:44:05.692Z,87.60
2018-04-17T05:46:33.805Z,86.90
2018-04-17T05:49:01.876Z,84.90
2018-04-17T05:51:29.989Z,85.90
2018-04-17T05:53:58.066Z,85.40
2018-04-17T05:56:26.239Z,83.40
2018-04-17T05:58:54.302Z,79.30
2018-04-17T06:01:22.358Z,77.20
2018-04-17T06:03:51.262Z,76.30
2018-04-17T06:06:19.436Z,76.60
2018-04-17T06:08:47.471Z,76.70
2018-04-17T06:11:15.537Z,76.60
2018-04-17T06:13:43.654Z,75.00
2018-04-17T06:16:11.697Z,72.10
2018-04-17T06:18:39.807Z,72.30
2018-04-17T06:21:07.857Z,72.90
2018-04-17T06:23:36.670Z,73.30
2018-04-17T06:26:04.745Z,73.10
2018-04-17T06:28:32.799Z,67.10
2018-04-17T06:31:00.878Z,60.30
2018-04-17T06:33:28.959Z,54.40
2018-04-17T06:35:57.025Z,51.60
2018-04-17T06:38:25.087Z,52.10
2018-04-17T06:40:53.151Z,52.20
2018-04-17T06:43:21.988Z,50.20
2018-04-17T06:45:50.116Z,50.20
2018-04-17T06:48:18.132Z,52.60
2018-04-17T06:50:46.179Z,55.30
2018-04-17T06:53:14.274Z,55.50
2018-04-17T06:55:42.309Z,52.20
2018-04-17T06:58:10.424Z,47.80
2018-04-17T07:00:38.439Z,44.20
2018-04-17T07:03:07.233Z,34.70
2018-04-17T07:05:35.316Z,34.60
2018-04-17T07:08:03.349Z,32.20
2018-04-17T07:10:32.184Z,36.10
2018-04-17T07:13:00.268Z,35.60
2018-04-17T07:15:28.302Z,38.20
2018-04-17T07:17:56.364Z,36.30
2018-04-17T07:20:25.195Z,31.30
2018-04-17T07:22:53.267Z,31.20
2018-04-17T07:25:21.322Z,29.70
2018-04-17T07:27:49.406Z,29.00
2018-04-17T07:30:17.458Z,29.70
2018-04-17T07:32:45.487Z,32.10
2018-04-17T07:35:13.568Z,34.20
2018-04-17T07:37:41.615Z,35.70
2018-04-17T07:40:09.677Z,37.80
2018-04-17T07:42:37.762Z,35.30
2018-04-17T07:45:05.855Z,32.70
2018-04-17T07:47:33.906Z,30.40
2018-04-17T07:50:02.079Z,31.80
2018-04-17T07:52:30.135Z,32.30
2018-04-17T07:54:58.206Z,33.10
2018-04-17T07:57:26.339Z,31.70
2018-04-17T07:59:54.385Z,29.30
2018-04-17T08:02:23.183Z,26.40
2018-04-17T08:04:51.998Z,24.40
2018-04-17T08:07:20.260Z,24.30
2018-04-17T08:09:48.292Z,24.10
2018-04-17T08:12:16.347Z,23.10
2018-04-17T08:14:44.488Z,22.10
2018-04-17T08:17:13.274Z,21.30
2018-04-17T08:19:41.369Z,21.10
2018-04-17T08:22:09.426Z,20.80
2018-04-17T08:24:37.492Z,20.40
2018-04-17T08:27:05.523Z,19.90
2018-04-17T08:29:33.629Z,19.70
2018-04-17T08:32:01.645Z,19.50
2018-04-17T08:34:29.719Z,19.50
2018-04-17T08:36:57.803Z,19.10
2018-04-17T08:39:25.818Z,18.70
2018-04-17T08:41:53.912Z,17.80
2018-04-17T08:44:21.949Z,17.70
2018-04-17T08:46:50.018Z,17.80
2018-04-17T08:49:18.106Z,17.30
2018-04-17T08:51:46.152Z,17.80
2018-04-17T08:54:14.998Z,17.70
2018-04-17T08:56:43.070Z,17.60
2018-04-17T08:59:11.138Z,17.30
2018-04-17T09:01:39.189Z,17.20
2018-04-17T09:04:07.239Z,16.70
2018-04-17T09:06:35.274Z,16.50
2018-04-17T09:09:03.326Z,16.00
2018-04-17T09:11:31.369Z,16.20
2018-04-17T09:13:59.435Z,16.80
2018-04-17T09:16:27.475Z,15.70
2018-04-17T09:18:56.381Z,15.90
2018-04-17T09:21:24.457Z,15.90
2018-04-17T09:23:52.557Z,15.50
2018-04-17T09:26:21.321Z,13.90
2018-04-17T09:28:49.380Z,14.30
2018-04-17T09:31:18.213Z,14.10
2018-04-17T09:33:46.281Z,14.00
2018-04-17T09:36:14.370Z,13.40
2018-04-17T09:38:42.448Z,12.70
2018-04-17T09:41:10.493Z,12.40
2018-04-17T09:43:38.545Z,12.40
2018-04-17T09:46:06.637Z,12.50
2018-04-17T09:48:34.684Z,12.70
2018-04-17T09:51:02.791Z,12.10
2018-04-17T09:53:30.870Z,12.10
2018-04-17T09:55:58.881Z,12.60
2018-04-17T09:58:27.706Z,12.60
2018-04-17T10:00:58.517Z,12.50
2018-04-17T10:03:26.617Z,12.60
2018-04-17T10:05:54.645Z,12.50
2018-04-17T10:08:22.694Z,12.00
2018-04-17T10:10:50.764Z,14.00
2018-04-17T10:13:18.818Z,14.50
2018-04-17T10:15:46.875Z,16.60
2018-04-17T10:18:14.924Z,18.20
2018-04-17T10:20:42.981Z,20.40
2018-04-17T10:23:11.045Z,20.30
2018-04-17T10:25:39.222Z,19.90
2018-04-17T10:28:07.259Z,17.70
2018-04-17T10:30:35.335Z,16.60
2018-04-17T10:33:03.367Z,16.20
2018-04-17T10:35:31.425Z,15.10
2018-04-17T10:37:59.494Z,15.50
2018-04-17T10:40:27.549Z,15.90
2018-04-17T10:42:56.039Z,16.00
2018-04-17T10:45:24.107Z,15.50
2018-04-17T10:47:52.921Z,15.70
2018-04-17T10:50:20.987Z,15.60
2018-04-17T10:52:49.053Z,15.40
2018-04-17T10:55:17.111Z,14.30
2018-04-17T10:57:45.160Z,14.10
2018-04-17T11:00:14.010Z,15.30
2018-04-17T11:02:42.062Z,15.30
2018-04-17T11:05:10.106Z,15.30
2018-04-17T11:07:38.161Z,14.70
2018-04-17T11:10:06.987Z,15.70
2018-04-17T11:12:35.054Z,15.60
2018-04-17T11:15:03.083Z,16.50
2018-04-17T11:17:31.174Z,17.00
2018-04-17T11:19:59.229Z,16.70
2018-04-17T11:22:28.111Z,18.10
2018-04-17T11:24:56.178Z,18.00
2018-04-17T11:27:24.233Z,17.70
2018-04-17T11:29:52.307Z,17.60
2018-04-17T11:32:20.344Z,17.90
2018-04-17T11:34:48.431Z,17.80
2018-04-17T11:37:16.458Z,18.40
2018-04-17T11:39:45.315Z,18.20
2018-04-17T11:42:13.366Z,18.20
2018-04-17T11:44:41.402Z,18.40
2018-04-17T11:47:09.478Z,18.80
2018-04-17T11:49:37.553Z,19.70
2018-04-17T11:52:05.626Z,19.90
2018-04-17T11:54:33.702Z,20.40
2018-04-17T11:57:01.796Z,20.70
2018-04-17T11:59:29.836Z,21.10
2018-04-17T12:01:57.928Z,20.90
2018-04-17T12:04:25.968Z,20.70
2018-04-17T12:06:54.813Z,21.50
2018-04-17T12:09:22.873Z,21.50
2018-04-17T12:11:50.933Z,21.70
2018-04-17T12:14:19.097Z,22.30
2018-04-17T12:16:47.173Z,21.40
2018-04-17T12:19:15.213Z,21.80
2018-04-17T12:21:44.045Z,22.50
2018-04-17T12:24:12.183Z,22.50
2018-04-17T12:26:40.217Z,22.50
2018-04-17T12:29:08.311Z,22.90
2018-04-17T12:31:37.166Z,22.90
2018-04-17T12:34:05.270Z,22.80
2018-04-17T12:36:33.355Z,22.10
2018-04-17T12:39:01.393Z,22.20
2018-04-17T12:41:29.463Z,22.50
2018-04-17T12:43:57.515Z,22.20
2018-04-17T12:46:25.586Z,21.90
2018-04-17T12:48:54.420Z,22.50
2018-04-17T12:51:22.604Z,22.90
2018-04-17T12:53:50.648Z,22.80
2018-04-17T12:56:18.741Z,22.50
2018-04-17T12:58:46.755Z,22.90
2018-04-17T13:01:14.817Z,23.10
2018-04-17T13:03:42.878Z,23.80
2018-04-17T13:06:10.953Z,24.00
2018-04-17T13:08:38.973Z,24.40
2018-04-17T13:11:07.014Z,24.30
2018-04-17T13:13:35.076Z,24.70
2018-04-17T13:16:03.120Z,23.70
2018-04-17T13:18:31.958Z,24.20
2018-04-17T13:21:00.033Z,24.20
2018-04-17T13:23:28.074Z,24.80
2018-04-17T13:25:56.144Z,24.00
2018-04-17T13:28:24.199Z,24.60
2018-04-17T13:30:52.249Z,25.10
2018-04-17T13:33:21.078Z,24.80
2018-04-17T13:35:49.108Z,24.70
2018-04-17T13:38:17.934Z,24.90
2018-04-17T13:40:45.999Z,24.40
2018-04-17T13:43:14.035Z,24.70
2018-04-17T13:45:42.835Z,25.50
2018-04-17T13:48:11.375Z,25.50
2018-04-17T13:50:39.433Z,24.80
2018-04-17T13:53:07.681Z,24.90
2018-04-17T13:55:36.463Z,25.70
2018-04-17T13:58:04.520Z,24.70
2018-04-17T14:00:33.340Z,25.80
2018-04-17T14:03:01.491Z,25.50
2018-04-17T14:05:30.055Z,26.10
2018-04-17T14:07:58.870Z,26.50
2018-04-17T14:10:26.922Z,26.50
2018-04-17T14:12:54.995Z,27.10
2018-04-17T14:15:23.825Z,27.70
2018-04-17T14:17:51.996Z,27.70
2018-04-17T14:20:20.119Z,27.30
2018-04-17T14:22:48.921Z,28.00
2018-04-17T14:25:16.998Z,27.50
2018-04-17T14:27:45.825Z,27.80
2018-04-17T14:30:14.784Z,27.30
2018-04-17T14:32:43.554Z,28.00
2018-04-17T14:35:12.377Z,28.70
2018-04-17T14:37:40.433Z,28.60
2018-04-17T14:40:08.490Z,28.70
2018-04-17T14:42:37.326Z,28.70
2018-04-17T14:45:05.387Z,28.70
2018-04-17T14:47:33.464Z,29.20
2018-04-17T14:50:01.499Z,29.20
2018-04-17T14:52:30.329Z,29.00
2018-04-17T14:54:58.399Z,29.20
2018-04-17T14:57:26.507Z,29.70
2018-04-17T14:59:54.533Z,29.20
2018-04-17T15:02:22.570Z,29.50
2018-04-17T15:04:50.746Z,28.90
2018-04-17T15:07:18.776Z,29.90
2018-04-17T15:09:46.831Z,29.80
2018-04-17T15:12:14.900Z,30.00
2018-04-17T15:14:42.957Z,29.70
2018-04-17T15:17:11.025Z,29.60
2018-04-17T15:19:39.112Z,29.90
2018-04-17T15:22:07.189Z,30.00
2018-04-17T15:24:35.256Z,30.30
2018-04-17T15:27:03.310Z,30.10
2018-04-17T15:29:31.381Z,29.90
2018-04-17T15:31:59.459Z,29.90
2018-04-17T15:34:27.523Z,29.90
2018-04-17T15:36:55.595Z,30.10
2018-04-17T15:39:23.670Z,30.40
2018-04-17T15:41:51.736Z,30.30
2018-04-17T15:44:20.546Z,30.00
2018-04-17T15:46:48.635Z,30.30
2018-04-17T15:49:16.671Z,29.70
2018-04-17T15:51:44.728Z,29.70
2018-04-17T15:54:12.817Z,29.90
2018-04-17T15:56:40.895Z,29.90
2018-04-17T15:59:08.967Z,30.00
2018-04-17T16:01:37.053Z,29.60
2018-04-17T16:04:05.124Z,29.90
2018-04-17T16:06:33.169Z,30.00
2018-04-17T16:09:01.268Z,30.30
2018-04-17T16:11:29.326Z,30.90
2018-04-17T16:13:57.367Z,31.30
2018-04-17T16:16:25.432Z,32.00
2018-04-17T16:18:53.503Z,32.10
2018-04-17T16:21:21.549Z,31.20
2018-04-17T16:23:51.110Z,30.60
2018-04-17T16:26:19.255Z,30.20
2018-04-17T16:28:47.257Z,31.00
2018-04-17T16:31:15.319Z,30.40
2018-04-17T16:33:43.400Z,30.10
2018-04-17T16:36:11.469Z,31.10
2018-04-17T16:38:39.521Z,31.90
2018-04-17T16:41:07.628Z,31.20
2018-04-17T16:43:36.387Z,32.10
2018-04-17T16:46:04.463Z,31.50
2018-04-17T16:48:32.521Z,32.00
2018-04-17T16:51:00.613Z,31.70
2018-04-17T16:53:28.669Z,31.60
2018-04-17T16:55:56.750Z,32.20
2018-04-17T16:58:24.818Z,33.60
2018-04-17T17:00:52.902Z,33.40
2018-04-17T17:03:20.993Z,34.40
2018-04-17T17:05:49.038Z,34.30
2018-04-17T17:08:17.122Z,34.00
2018-04-17T17:10:45.160Z,34.00
2018-04-17T17:13:13.222Z,34.10
2018-04-17T17:15:41.306Z,34.40
2018-04-17T17:18:09.345Z,34.60
2018-04-17T17:20:37.674Z,35.50
2018-04-17T17:23:05.735Z,34.70
2018-04-17T17:25:33.800Z,34.00
2018-04-17T17:28:01.860Z,34.00
2018-04-17T17:32:59.252Z,35.20
2018-04-17T17:35:27.338Z,34.50
2018-04-17T17:37:55.815Z,35.10
2018-04-17T17:40:23.886Z,35.30
2018-04-17T17:42:52.332Z,35.60
2018-04-17T17:45:21.159Z,36.80
2018-04-17T17:47:49.253Z,35.30
2018-04-17T17:50:17.293Z,34.80
2018-04-17T17:52:45.336Z,35.50
2018-04-17T17:55:13.446Z,35.00
2018-04-17T17:57:41.474Z,35.10
2018-04-17T18:00:10.375Z,36.50
2018-04-17T18:02:38.395Z,36.50
2018-04-17T18:05:07.131Z,36.90
2018-04-17T18:07:36.680Z,37.80
2018-04-17T18:10:04.717Z,37.50
2018-04-17T18:12:32.781Z,38.10
2018-04-17T18:15:00.859Z,38.40
2018-04-17T18:17:28.895Z,38.40
2018-04-17T18:19:56.943Z,39.00
2018-04-17T18:22:25.023Z,38.80
2018-04-17T18:24:53.098Z,38.90
2018-04-17T18:27:21.159Z,40.00
2018-04-17T18:29:49.226Z,39.60
2018-04-17T18:32:17.274Z,39.50
2018-04-17T18:34:45.348Z,38.90
2018-04-17T18:37:13.394Z,39.50
2018-04-17T18:39:41.452Z,39.60
2018-04-17T18:42:10.296Z,40.60
2018-04-17T18:44:38.359Z,39.90
2018-04-17T18:47:06.427Z,40.60
2018-04-17T18:49:34.511Z,40.70
2018-04-17T18:52:02.538Z,41.10
2018-04-17T18:54:30.600Z,41.00
2018-04-17T18:56:58.670Z,41.20
2018-04-17T18:59:27.538Z,42.30
2018-04-17T19:01:55.635Z,42.40
2018-04-17T19:04:23.698Z,42.50
2018-04-17T19:06:52.028Z,42.40
2018-04-17T19:09:20.117Z,42.60
2018-04-17T19:11:48.158Z,42.80
2018-04-17T19:14:17.077Z,42.50
2018-04-17T19:16:45.106Z,43.20
2018-04-17T19:19:13.140Z,42.80
2018-04-17T19:21:42.005Z,43.50
2018-04-17T19:24:10.052Z,43.50
2018-04-17T19:26:38.098Z,44.60
2018-04-17T19:29:06.186Z,44.40
2018-04-17T19:31:34.268Z,45.20
2018-04-17T19:34:02.428Z,45.10
2018-04-17T19:36:30.478Z,44.90
2018-04-17T19:38:58.549Z,45.70
2018-04-17T19:41:28.281Z,45.80
2018-04-17T19:43:56.349Z,45.60
2018-04-17T19:46:24.421Z,46.40
2018-04-17T19:48:52.503Z,45.60
2018-04-17T19:51:20.556Z,46.10
2018-04-17T19:53:48.605Z,46.40
2018-04-17T19:56:17.441Z,47.00
2018-04-17T19:58:45.503Z,46.80
2018-04-17T20:01:14.291Z,47.10
2018-04-17T20:03:42.347Z,47.30
2018-04-17T20:06:10.465Z,47.20
2018-04-17T20:08:40.257Z,47.60
2018-04-17T20:11:08.303Z,47.90
2018-04-17T20:13:36.374Z,48.70
2018-04-17T20:16:05.182Z,50.30
2018-04-17T20:18:33.336Z,49.60
2018-04-17T20:21:01.418Z,50.30
2018-04-17T20:23:29.493Z,50.90
2018-04-17T20:25:57.687Z,51.60
2018-04-17T20:28:25.737Z,52.40
2018-04-17T20:30:53.895Z,53.10
2018-04-17T20:33:23.698Z,53.60
2018-04-17T20:35:51.741Z,53.20
2018-04-17T20:38:19.866Z,53.30
2018-04-17T20:40:48.677Z,53.80
2018-04-17T20:43:17.115Z,53.70
2018-04-17T20:45:45.133Z,54.00
2018-04-17T20:48:13.191Z,54.50
2018-04-17T20:50:41.274Z,55.10
2018-04-17T20:53:09.325Z,56.00
2018-04-17T20:55:37.427Z,56.70
2018-04-17T20:58:05.467Z,57.40
2018-04-17T21:00:33.598Z,57.70
2018-04-17T21:03:01.601Z,58.40
2018-04-17T21:05:29.679Z,58.90
2018-04-17T21:07:57.741Z,59.40
2018-04-17T21:10:25.814Z,60.00
2018-04-17T21:12:54.723Z,60.00
2018-04-17T21:15:22.802Z,60.30
2018-04-17T21:17:50.875Z,60.40
2018-04-17T21:20:19.715Z,61.10
2018-04-17T21:22:47.789Z,61.10
2018-04-17T21:25:15.842Z,61.70
2018-04-17T21:27:44.684Z,62.60
2018-04-17T21:30:12.737Z,62.60
2018-04-17T21:32:40.813Z,63.40
2018-04-17T21:35:08.890Z,64.10
2018-04-17T21:37:37.847Z,64.50
2018-04-17T21:40:06.679Z,64.90
2018-04-17T21:42:34.791Z,64.80
2018-04-17T21:45:03.601Z,65.50
2018-04-17T21:47:31.689Z,65.40
2018-04-17T21:49:59.738Z,65.40
2018-04-17T21:52:27.793Z,64.60
2018-04-17T21:54:56.655Z,66.40
2018-04-17T21:57:24.734Z,66.20
2018-04-17T21:59:52.789Z,65.80
2018-04-17T22:02:20.866Z,66.30
2018-04-17T22:04:48.901Z,66.60
2018-04-17T22:07:17.015Z,66.90
2018-04-17T22:09:45.078Z,66.70
2018-04-17T22:12:13.179Z,67.10
2018-04-17T22:14:41.278Z,67.00
2018-04-17T22:17:09.336Z,67.00
2018-04-17T22:19:37.393Z,67.60
2018-04-17T22:22:05.429Z,67.50
2018-04-17T22:24:34.269Z,68.70
2018-04-17T22:27:03.092Z,69.30
2018-04-17T22:29:31.258Z,68.70
2018-04-17T22:32:00.053Z,69.70
2018-04-17T22:34:28.115Z,69.20
2018-04-17T22:36:56.803Z,69.50
2018-04-17T22:39:25.624Z,70.50
2018-04-17T22:41:54.090Z,70.70
2018-04-17T22:44:22.931Z,71.00
2018-04-17T22:46:51.754Z,71.70
2018-04-17T22:49:19.836Z,71.10
2018-04-17T22:51:48.325Z,70.20
2018-04-17T22:54:16.361Z,70.40
2018-04-17T22:56:44.433Z,70.90
2018-04-17T22:59:12.496Z,71.20
2018-04-17T23:01:41.362Z,72.10
2018-04-17T23:04:09.434Z,72.00
2018-04-17T23:06:37.904Z,72.20
2018-04-17T23:09:06.198Z,72.60
2018-04-17T23:11:34.254Z,73.30
2018-04-17T23:14:02.326Z,74.00
2018-04-17T23:16:30.437Z,73.90
2018-04-17T23:18:59.234Z,74.00
2018-04-17T23:21:27.656Z,74.10
2018-04-17T23:23:55.685Z,74.20
2018-04-17T23:26:24.537Z,74.40
2018-04-17T23:28:52.931Z,74.80
2018-04-17T23:31:20.958Z,75.10
2018-04-17T23:33:49.044Z,75.10
2018-04-17T23:36:17.130Z,75.40
2018-04-17T23:38:45.178Z,75.50
2018-04-17T23:41:13.254Z,75.50
2018-04-17T23:43:41.324Z,76.10
2018-04-17T23:46:09.382Z,76.40
2018-04-17T23:48:37.462Z,76.60
2018-04-17T23:51:05.513Z,77.00
2018-04-17T23:53:34.591Z,77.30
2018-04-17T23:56:03.425Z,77.30
2018-04-17T23:58:31.498Z,77.40
